Time;durP1;ratioP1;P1;durP2;ratioP2;P2;SDS_P1;SDS_P2;PMS_P1;PMS_P2;Temp;Humidity;BMP_temperature;BMP_pressure;BME280_temperature;BME280_humidity;BME280_pressure;Samples;Min_cycle;Max_cycle;Signal;HPM_P1;HPM_P2
2022/12/12 00:01:33;;;;;;;27.33;17.70;;;;;;;5.12;52.27;98106.44;6959348;28;20231;-80
2022/12/12 00:05:05;;;;;;;32.00;20.20;;;;;;;5.02;53.10;98121.09;6958717;28;20215;-80
2022/12/12 00:08:26;;;;;;;29.00;17.37;;;;;;;5.28;51.73;98118.72;6982377;28;20226;-80
2022/12/12 00:11:50;;;;;;;30.60;17.40;;;;;;;5.50;51.56;98123.09;6994366;28;20209;-80
2022/12/12 00:15:13;;;;;;;27.97;18.87;;;;;;;4.94;52.76;98100.66;6984128;28;20210;-80
2022/12/12 00:18:41;;;;;;;28.90;17.93;;;;;;;5.06;52.11;98107.19;6986885;28;20230;-80
2022/12/12 00:22:03;;;;;;;29.13;18.87;;;;;;;4.82;54.13;98125.34;6986612;28;20224;-80
2022/12/12 00:25:24;;;;;;;29.60;19.17;;;;;;;4.74;53.91;98106.75;6985476;28;20210;-80
2022/12/12 00:28:50;;;;;;;29.40;19.17;;;;;;;4.87;53.14;98117.63;6985430;28;20231;-79
2022/12/12 00:32:14;;;;;;;32.17;18.77;;;;;;;4.80;52.75;98114.03;6985427;28;20187;-80
2022/12/12 00:35:35;;;;;;;32.33;19.20;;;;;;;4.85;53.47;98133.00;6984557;28;20635;-80
2022/12/12 00:38:58;;;;;;;31.17;19.40;;;;;;;4.92;52.99;98120.56;6984060;28;20231;-80
2022/12/12 00:42:19;;;;;;;29.87;18.97;;;;;;;4.97;52.93;98116.31;6985033;28;20273;-79
2022/12/12 00:45:43;;;;;;;27.27;18.63;;;;;;;4.80;53.09;98114.88;6984361;28;20210;-80
2022/12/12 00:49:05;;;;;;;30.97;20.27;;;;;;;4.74;53.92;98120.13;6984588;28;20861;-80
2022/12/12 00:52:27;;;;;;;28.03;17.67;;;;;;;5.40;52.72;98131.41;6985515;28;20261;-80
2022/12/12 00:59:39;;;;;;;29.90;18.67;;;;;;;5.27;52.73;98138.44;6985767;28;20298;-79
2022/12/12 01:03:02;;;;;;;27.33;16.73;;;;;;;5.38;51.85;98103.22;6986102;28;20237;-80
2022/12/12 01:06:27;;;;;;;25.10;17.00;;;;;;;5.45;51.52;98118.31;6983872;28;20216;-81
2022/12/12 01:09:49;;;;;;;25.43;16.43;;;;;;;5.29;51.73;98125.72;6985007;28;20271;-80
2022/12/12 01:13:11;;;;;;;24.23;15.77;;;;;;;5.23;51.89;98129.16;6985931;28;20206;-81
2022/12/12 01:16:33;;;;;;;31.90;17.47;;;;;;;5.18;51.58;98118.22;6988159;28;20210;-81
2022/12/12 01:19:56;;;;;;;27.50;16.63;;;;;;;5.15;51.42;98095.38;6989702;28;20226;-80
2022/12/12 01:23:18;;;;;;;23.50;15.33;;;;;;;5.14;51.56;98115.06;6989028;28;20222;-80
2022/12/12 01:30:38;;;;;;;24.50;15.37;;;;;;;5.28;51.98;98132.94;6988553;28;20218;-80
2022/12/12 01:34:13;;;;;;;22.70;14.10;;;;;;;5.19;51.76;98133.22;6988743;28;20198;-80
2022/12/12 01:37:37;;;;;;;20.90;13.80;;;;;;;5.20;52.25;98135.69;6985094;28;20210;-82
2022/12/12 01:40:59;;;;;;;23.57;14.37;;;;;;;4.81;52.88;98124.53;6984778;28;20715;-83
2022/12/12 01:44:39;;;;;;;19.30;12.73;;;;;;;5.13;51.88;98113.41;6984167;28;20273;-82
2022/12/12 01:48:01;;;;;;;20.17;12.47;;;;;;;5.00;52.07;98123.94;6987583;28;20251;-81
2022/12/12 01:51:25;;;;;;;19.37;13.20;;;;;;;4.39;53.82;98128.84;6986686;28;20218;-81
2022/12/12 01:54:51;;;;;;;23.70;14.10;;;;;;;4.62;53.53;98118.91;6986156;28;20218;-81
2022/12/12 01:58:13;;;;;;;24.63;15.70;;;;;;;4.78;53.94;98137.44;6987439;28;20237;-81
2022/12/12 02:01:35;;;;;;;24.87;14.53;;;;;;;4.32;55.37;98128.75;6987502;28;20226;-81
2022/12/12 02:05:01;;;;;;;25.80;15.53;;;;;;;4.47;54.15;98148.28;6988088;28;20220;-81
2022/12/12 02:08:26;;;;;;;24.30;14.93;;;;;;;4.70;53.39;98130.34;6988313;28;20258;-81
2022/12/12 02:12:08;;;;;;;23.67;16.30;;;;;;;4.39;53.38;98070.16;6988546;28;20211;-82
2022/12/12 02:15:38;;;;;;;23.67;15.53;;;;;;;4.58;53.98;98141.66;6987705;28;20190;-81
2022/12/12 02:19:05;;;;;;;27.20;15.97;;;;;;;4.48;53.94;98138.44;6988760;28;20226;-82
2022/12/12 02:22:40;;;;;;;21.93;14.70;;;;;;;4.72;53.15;98122.97;6987486;28;20242;-81
2022/12/12 02:26:26;;;;;;;22.00;13.10;;;;;;;4.76;52.95;98142.09;6987969;28;20241;-81
2022/12/12 02:30:32;;;;;;;24.47;15.23;;;;;;;4.41;53.43;98150.84;6986409;28;20231;-81
2022/12/12 02:34:01;;;;;;;22.07;13.90;;;;;;;4.65;52.65;98134.59;6979878;28;20211;-82
2022/12/12 02:37:33;;;;;;;25.77;15.40;;;;;;;4.21;53.45;98128.38;6984476;28;20214;-82
2022/12/12 02:41:02;;;;;;;22.43;15.13;;;;;;;4.37;52.37;98122.88;6980367;28;20308;-83
2022/12/12 02:44:29;;;;;;;22.80;15.17;;;;;;;4.11;52.68;98119.78;6980813;28;20274;-82
2022/12/12 02:47:53;;;;;;;25.63;15.30;;;;;;;4.17;52.89;98156.41;6984114;28;20245;-82
2022/12/12 02:51:21;;;;;;;25.97;15.97;;;;;;;3.62;53.59;98163.88;6983886;28;20217;-82
2022/12/12 02:54:43;;;;;;;24.73;15.63;;;;;;;3.54;53.89;98169.25;6984887;28;20248;-83
2022/12/12 02:58:27;;;;;;;22.33;15.27;;;;;;;3.82;54.35;98165.03;6984841;28;20231;-82
2022/12/12 03:10:24;;;;;;;22.57;14.70;;;;;;;3.69;53.38;98163.00;6992058;28;20230;-82
2022/12/12 03:13:49;;;;;;;23.67;14.80;;;;;;;3.90;53.44;98165.81;6989705;28;20194;-82
2022/12/12 03:17:17;;;;;;;22.87;14.03;;;;;;;4.07;53.07;98164.66;6988881;28;20202;-82
2022/12/12 03:20:45;;;;;;;20.30;13.47;;;;;;;3.89;52.32;98166.81;6989237;28;20237;-82
2022/12/12 03:24:10;;;;;;;19.00;12.37;;;;;;;3.80;52.65;98165.25;6988319;28;20190;-82
2022/12/12 03:27:37;;;;;;;28.93;15.13;;;;;;;2.51;54.90;98134.97;6988619;28;20585;-82
2022/12/12 03:31:05;;;;;;;24.07;15.00;;;;;;;2.87;55.57;98170.78;6988784;28;20253;-82
2022/12/12 03:38:12;;;;;;;27.73;16.23;;;;;;;2.95;55.14;98137.97;6930406;28;20500;-82
2022/12/12 03:41:37;;;;;;;19.97;14.03;;;;;;;3.24;53.64;98162.94;6959664;28;20232;-82
2022/12/12 03:45:05;;;;;;;23.30;15.47;;;;;;;3.14;53.12;98175.63;6988079;28;20219;-82
2022/12/12 03:52:51;;;;;;;27.13;17.23;;;;;;;2.72;54.90;98172.47;6990122;28;20217;-82
2022/12/12 03:56:20;;;;;;;25.73;15.30;;;;;;;2.95;54.48;98175.25;6989564;28;20216;-82
2022/12/12 03:59:44;;;;;;;26.30;16.60;;;;;;;3.05;54.24;98167.84;6989789;28;20236;-82
2022/12/12 04:03:14;;;;;;;23.77;13.70;;;;;;;2.98;53.95;98170.41;6990113;28;20231;-82
2022/12/12 04:06:42;;;;;;;24.33;15.60;;;;;;;2.56;54.67;98177.03;6989975;28;20639;-82
2022/12/12 04:13:51;;;;;;;27.17;17.60;;;;;;;2.11;56.25;98105.81;6990068;28;20256;-82
2022/12/12 04:17:15;;;;;;;34.73;20.87;;;;;;;2.54;56.34;98190.50;6989582;28;20214;-82
2022/12/12 04:25:30;;;;;;;;;;;;;;;;;;;;;
2022/12/12 04:55:24;;;;;;;29.47;20.20;;;;;;;3.45;55.29;98202.28;6974948;28;20210;-82
2022/12/12 05:16:00;;;;;;;35.90;22.67;;;;;;;3.78;54.71;98219.75;6982635;28;20229;-83
2022/12/12 05:24:34;;;;;;;36.10;21.83;;;;;;;3.80;53.40;98215.06;6983979;28;20273;-84
2022/12/12 05:42:00;;;;;;;31.67;20.97;;;;;;;3.60;54.36;98217.34;6615045;29;20226;-83
2022/12/12 06:02:38;;;;;;;32.67;19.93;;;;;;;3.61;54.54;98237.66;6744558;29;20247;-83
2022/12/12 06:13:49;;;;;;;30.07;19.03;;;;;;;3.50;54.42;98246.06;6819680;28;20341;-83
2022/12/12 06:17:11;;;;;;;31.90;19.87;;;;;;;2.79;54.17;98138.84;6845405;29;20628;-83
2022/12/12 06:20:37;;;;;;;30.40;19.53;;;;;;;3.51;53.81;98250.38;6847052;29;20226;-82
2022/12/12 06:27:36;;;;;;;25.77;17.47;;;;;;;3.32;54.00;98250.78;6972092;28;20244;-86
2022/12/12 06:31:32;;;;;;;27.10;17.93;;;;;;;3.29;54.14;98248.47;6981882;28;20206;-84
2022/12/12 06:39:45;;;;;;;;;;;;;;;;;;;;;
2022/12/12 06:43:22;;;;;;;26.57;17.20;;;;;;;3.11;55.14;98249.72;6962978;28;20595;-84
2022/12/12 06:47:15;;;;;;;24.30;16.97;;;;;;;2.88;54.91;98262.09;6982105;28;20211;-84
2022/12/12 06:50:52;;;;;;;25.30;16.27;;;;;;;2.63;55.26;98264.00;6990242;28;20234;-84
2022/12/12 06:54:25;;;;;;;22.93;15.93;;;;;;;3.11;54.37;98255.03;6989857;28;20238;-85
2022/12/12 06:58:00;;;;;;;25.90;17.10;;;;;;;3.27;54.01;98262.97;6987873;28;20214;-84
2022/12/12 07:01:25;;;;;;;29.07;17.77;;;;;;;3.07;54.22;98273.19;6975722;28;20205;-84
2022/12/12 07:04:46;;;;;;;28.50;18.70;;;;;;;3.18;53.39;98278.16;6976328;28;20199;-84
2022/12/12 07:08:09;;;;;;;26.07;18.20;;;;;;;3.13;53.34;98271.69;6966459;28;20229;-84
2022/12/12 07:11:31;;;;;;;28.57;18.03;;;;;;;2.85;53.38;98259.78;6964639;28;20270;-84
2022/12/12 07:14:53;;;;;;;25.40;17.50;;;;;;;3.16;53.02;98282.84;6964078;28;20688;-83
2022/12/12 07:18:17;;;;;;;29.70;18.87;;;;;;;2.73;53.83;98267.28;6982326;28;20238;-84
2022/12/12 07:21:39;;;;;;;33.03;18.97;;;;;;;2.57;53.69;98280.63;6972853;28;20286;-84
2022/12/12 07:25:26;;;;;;;31.60;18.43;;;;;;;2.72;54.01;98289.56;6962533;28;20230;-84
2022/12/12 07:28:53;;;;;;;29.47;19.17;;;;;;;2.97;53.76;98293.03;6963174;28;20593;-84
2022/12/12 07:32:18;;;;;;;31.47;17.93;;;;;;;3.14;53.44;98286.66;6963681;28;20226;-83
2022/12/12 07:35:49;;;;;;;29.43;18.07;;;;;;;3.27;53.00;98294.94;6962612;28;20203;-84
2022/12/12 07:39:32;;;;;;;26.23;17.40;;;;;;;3.05;52.59;98303.66;7015063;28;20261;-84
2022/12/12 07:43:05;;;;;;;29.67;18.07;;;;;;;3.23;52.59;98299.78;7017392;28;20221;-84
2022/12/12 07:46:48;;;;;;;27.07;18.80;;;;;;;2.98;53.35;98305.34;7010317;28;20210;-84
2022/12/12 07:50:25;;;;;;;31.67;18.77;;;;;;;3.13;52.51;98298.31;6961191;28;20231;-84
2022/12/12 07:54:00;;;;;;;27.73;17.87;;;;;;;3.26;51.92;98307.41;6962013;28;20213;-84
2022/12/12 07:57:22;;;;;;;25.57;18.47;;;;;;;2.95;52.58;98306.50;6961117;28;20222;-84
2022/12/12 08:00:44;;;;;;;30.27;20.10;;;;;;;3.18;52.91;98296.81;6961949;28;20230;-83
2022/12/12 08:04:19;;;;;;;31.50;19.27;;;;;;;3.24;52.40;98309.44;7012514;28;20225;-84
2022/12/12 08:07:41;;;;;;;29.77;18.23;;;;;;;3.27;52.18;98300.28;6987226;28;20211;-84
2022/12/12 08:11:11;;;;;;;30.37;19.13;;;;;;;3.15;53.78;98302.47;6960072;28;20217;-84
2022/12/12 08:14:33;;;;;;;27.73;18.23;;;;;;;3.55;54.50;98306.81;6959538;28;20237;-82
2022/12/12 08:17:54;;;;;;;28.97;19.13;;;;;;;3.43;52.38;98314.34;6981595;28;20249;-77
2022/12/12 08:21:18;;;;;;;30.40;19.20;;;;;;;3.66;51.15;98312.59;6965690;28;20214;-79
2022/12/12 08:24:39;;;;;;;27.50;18.10;;;;;;;3.56;50.95;98308.47;6969678;28;20226;-84
2022/12/12 08:28:02;;;;;;;34.30;19.63;;;;;;;3.28;51.81;98289.44;6981522;28;20230;-79
2022/12/12 08:31:30;;;;;;;26.40;17.37;;;;;;;3.46;51.16;98322.03;6978416;28;20249;-82
2022/12/12 08:34:56;;;;;;;26.17;18.20;;;;;;;3.35;51.22;98322.38;6958496;28;20284;-82
2022/12/12 08:38:17;;;;;;;27.97;18.67;;;;;;;3.56;50.75;98317.31;6976450;28;20231;-81
2022/12/12 08:41:42;;;;;;;28.83;17.70;;;;;;;3.95;50.90;98327.97;6970137;28;20203;-82
2022/12/12 08:45:06;;;;;;;30.07;18.60;;;;;;;3.93;50.55;98345.94;6975091;28;20209;-82
2022/12/12 08:48:27;;;;;;;29.00;17.63;;;;;;;4.09;50.42;98344.03;6973036;28;20230;-81
2022/12/12 08:51:50;;;;;;;27.47;17.83;;;;;;;4.03;49.67;98335.91;6976889;28;20246;-81
2022/12/12 08:55:12;;;;;;;30.67;19.23;;;;;;;3.84;50.74;98350.50;6974449;28;20222;-81
2022/12/12 08:58:34;;;;;;;29.97;18.23;;;;;;;3.66;49.67;98293.13;6965286;28;20233;-81
2022/12/12 09:01:57;;;;;;;32.27;17.80;;;;;;;3.80;50.61;98340.34;6963137;28;20198;-81
2022/12/12 09:05:18;;;;;;;31.93;19.03;;;;;;;3.97;50.46;98336.59;6984495;28;20213;-82
2022/12/12 09:08:41;;;;;;;26.23;16.97;;;;;;;3.85;49.74;98279.34;6985729;28;20233;-81
2022/12/12 09:12:07;;;;;;;28.20;16.90;;;;;;;4.24;49.86;98342.28;6977428;28;20296;-81
2022/12/12 09:15:43;;;;;;;23.30;15.33;;;;;;;4.41;49.23;98354.50;6975819;28;20236;-80
2022/12/12 09:19:06;;;;;;;25.07;16.70;;;;;;;4.70;48.42;98354.59;6964314;28;20227;-81
2022/12/12 09:22:28;;;;;;;25.43;16.97;;;;;;;4.49;48.77;98334.94;6982728;28;20238;-81
2022/12/12 09:25:50;;;;;;;24.60;16.43;;;;;;;4.76;48.26;98351.22;6984331;28;20210;-82
2022/12/12 09:29:12;;;;;;;25.23;17.13;;;;;;;4.80;48.44;98362.38;6986473;28;20642;-81
2022/12/12 09:33:08;;;;;;;27.47;17.27;;;;;;;4.90;47.80;98365.63;6985139;28;20198;-81
2022/12/12 09:36:31;;;;;;;26.03;17.10;;;;;;;4.67;48.60;98336.25;6982977;28;20293;-80
2022/12/12 09:39:52;;;;;;;25.27;17.60;;;;;;;4.48;48.50;98351.97;6957279;28;20247;-82
2022/12/12 09:43:16;;;;;;;27.77;17.27;;;;;;;3.71;50.88;98384.06;6981113;28;20235;-81
2022/12/12 09:47:04;;;;;;;26.23;17.50;;;;;;;3.51;50.73;98325.00;6982023;28;20214;-81
2022/12/12 09:50:32;;;;;;;24.33;16.10;;;;;;;3.50;51.83;98334.00;6957168;28;20231;-81
2022/12/12 09:53:55;;;;;;;24.07;16.40;;;;;;;4.19;50.14;98363.31;6955484;28;20207;-83
2022/12/12 09:57:23;;;;;;;25.87;16.57;;;;;;;4.09;50.58;98362.72;6950574;28;20305;-83
2022/12/12 10:00:54;;;;;;;25.20;15.47;;;;;;;4.37;48.75;98371.03;6952468;28;20284;-81
2022/12/12 10:04:27;;;;;;;26.07;16.90;;;;;;;4.45;49.74;98339.78;6979392;28;20233;-81
2022/12/12 10:07:56;;;;;;;23.10;15.30;;;;;;;5.36;46.25;98333.25;6965858;28;20246;-81
2022/12/12 10:15:13;;;;;;;25.23;16.60;;;;;;;4.81;48.07;98335.50;6992047;28;20270;-81
2022/12/12 10:18:38;;;;;;;19.07;14.07;;;;;;;5.75;46.73;98349.00;6971920;28;20229;-81
2022/12/12 10:22:07;;;;;;;21.80;15.03;;;;;;;6.49;44.90;98321.94;6978706;28;20247;-80
2022/12/12 10:25:38;;;;;;;22.73;16.17;;;;;;;6.58;44.23;98331.47;6987851;28;20194;-80
2022/12/12 10:29:11;;;;;;;22.60;16.50;;;;;;;6.71;43.37;98335.13;6982934;28;20227;-80
2022/12/12 10:32:36;;;;;;;22.83;15.20;;;;;;;6.96;43.29;98324.81;6997283;28;20217;-80
2022/12/12 10:36:24;;;;;;;23.07;14.93;;;;;;;7.15;43.06;98335.72;7015030;28;20233;-80
2022/12/12 10:39:53;;;;;;;20.70;15.00;;;;;;;7.18;42.04;98318.41;6957457;28;20709;-79
2022/12/12 10:43:21;;;;;;;20.90;15.13;;;;;;;6.61;43.90;98337.28;6978366;28;20283;-86
2022/12/12 10:46:51;;;;;;;22.50;13.90;;;;;;;7.25;42.74;98309.38;6979432;28;20231;-81
2022/12/12 10:50:24;;;;;;;21.00;14.13;;;;;;;6.30;43.92;98280.53;6975314;28;20233;-80
2022/12/12 10:53:46;;;;;;;21.00;15.30;;;;;;;6.72;43.96;98320.69;6984338;28;20903;-83
2022/12/12 10:57:10;;;;;;;17.70;13.97;;;;;;;6.95;43.65;98315.94;6988599;28;20216;-88
2022/12/12 11:00:41;;;;;;;23.60;15.37;;;;;;;7.15;43.06;98318.78;6982723;28;20269;-88
2022/12/12 11:04:22;;;;;;;19.83;14.30;;;;;;;7.04;42.79;98273.75;6989725;28;20240;-84
2022/12/12 11:07:58;;;;;;;21.93;14.93;;;;;;;6.28;43.67;98290.63;6986451;28;20188;-81
2022/12/12 11:11:21;;;;;;;20.33;14.93;;;;;;;6.43;44.35;98299.41;6976522;28;20208;-78
2022/12/12 11:14:46;;;;;;;18.20;14.07;;;;;;;5.95;44.80;98334.09;6981379;28;20251;-79
2022/12/12 11:18:14;;;;;;;23.40;15.03;;;;;;;5.37;46.34;98281.47;6992667;28;20318;-78
2022/12/12 11:21:38;;;;;;;21.87;15.57;;;;;;;5.55;46.93;98316.66;7006505;28;20186;-78
2022/12/12 11:25:19;;;;;;;24.83;15.50;;;;;;;4.92;48.13;98319.03;7014376;28;20229;-83
2022/12/12 11:29:00;;;;;;;18.40;13.77;;;;;;;5.49;47.21;98292.53;7019732;28;20223;-82
2022/12/12 11:32:27;;;;;;;19.27;14.73;;;;;;;5.14;47.02;98293.28;6998194;28;20220;-85
2022/12/12 11:35:53;;;;;;;23.60;15.77;;;;;;;5.32;48.03;98312.44;6961360;28;20210;-80
2022/12/12 11:39:21;;;;;;;20.33;14.97;;;;;;;5.47;47.66;98306.06;6978783;28;20389;-77
2022/12/12 11:42:43;;;;;;;20.23;14.90;;;;;;;5.50;47.74;98300.38;6979142;28;20298;-78
2022/12/12 11:46:08;;;;;;;20.30;14.20;;;;;;;5.55;46.48;98307.84;6983728;28;20242;-78
2022/12/12 11:49:32;;;;;;;22.07;14.77;;;;;;;5.51;47.29;98274.44;6964439;28;20265;-83
2022/12/12 11:53:00;;;;;;;19.47;14.10;;;;;;;5.61;46.86;98280.34;6987566;28;20205;-82
2022/12/12 11:56:33;;;;;;;24.90;14.63;;;;;;;5.68;46.65;98290.13;6988541;28;20210;-78
2022/12/12 12:00:05;;;;;;;19.40;13.80;;;;;;;6.39;45.14;98284.75;6984643;28;20290;-82
2022/12/12 12:03:50;;;;;;;19.20;13.70;;;;;;;6.08;45.55;98273.50;6975682;28;20231;-78
2022/12/12 12:07:25;;;;;;;22.63;13.77;;;;;;;6.27;44.70;98275.59;6966465;28;20196;-76
2022/12/12 12:10:55;;;;;;;18.57;13.60;;;;;;;6.05;44.95;98289.97;6971809;28;20224;-78
2022/12/12 12:14:31;;;;;;;15.93;12.47;;;;;;;6.22;44.04;98277.16;6959469;28;20232;-79
2022/12/12 12:18:05;;;;;;;15.23;12.07;;;;;;;6.31;44.13;98282.19;6978394;28;20260;-79
2022/12/12 12:21:29;;;;;;;17.77;12.77;;;;;;;6.31;44.33;98274.16;6963927;28;20192;-78
2022/12/12 12:25:24;;;;;;;20.23;12.53;;;;;;;6.66;42.96;98283.97;6958105;28;20318;-79
2022/12/12 12:29:15;;;;;;;15.53;11.90;;;;;;;6.68;42.37;98279.25;6951671;28;20235;-79
2022/12/12 12:32:45;;;;;;;17.17;11.17;;;;;;;6.25;43.06;98285.63;6949616;28;20871;-78
2022/12/12 12:36:15;;;;;;;18.00;12.10;;;;;;;6.96;43.16;98268.56;6947844;28;20194;-77
2022/12/12 12:39:50;;;;;;;17.80;12.63;;;;;;;6.71;43.34;98262.78;6947802;28;20224;-78
2022/12/12 12:43:37;;;;;;;17.97;12.23;;;;;;;7.76;42.00;98270.44;6947731;28;20255;-78
2022/12/12 12:47:04;;;;;;;21.77;13.30;;;;;;;7.32;41.63;98271.88;6943333;28;20268;-78
2022/12/12 12:50:50;;;;;;;18.33;12.73;;;;;;;7.45;41.72;98245.13;6963289;28;20233;-82
2022/12/12 12:54:16;;;;;;;18.03;11.40;;;;;;;8.20;40.14;98253.91;6940049;28;20252;-80
2022/12/12 12:57:40;;;;;;;15.83;11.10;;;;;;;7.98;39.64;98236.25;6953533;28;20661;-82
2022/12/12 13:01:13;;;;;;;15.73;10.87;;;;;;;7.56;40.35;98250.78;6955902;28;20248;-85
2022/12/12 13:04:41;;;;;;;16.80;11.57;;;;;;;7.27;41.75;98261.75;6986771;28;20205;-84
2022/12/12 13:08:07;;;;;;;16.10;11.93;;;;;;;6.90;42.46;98255.94;6958189;28;20248;-82
2022/12/12 13:11:33;;;;;;;18.47;11.93;;;;;;;6.39;42.63;98219.66;6957841;28;20646;-82
2022/12/12 13:14:58;;;;;;;17.00;11.90;;;;;;;7.19;41.98;98235.09;6958235;28;20213;-82
2022/12/12 13:18:20;;;;;;;20.47;12.43;;;;;;;6.71;43.21;98270.00;6961671;28;20233;-82
2022/12/12 13:21:44;;;;;;;16.40;12.30;;;;;;;6.86;42.78;98266.22;6967440;28;20200;-81
2022/12/12 13:25:16;;;;;;;16.43;11.73;;;;;;;6.66;42.55;98257.19;6987493;28;20255;-81
2022/12/12 13:28:41;;;;;;;21.17;13.10;;;;;;;6.79;43.42;98259.97;6963807;28;20233;-83
2022/12/12 13:32:49;;;;;;;17.50;12.20;;;;;;;7.50;40.89;98245.38;6962796;28;20211;-80
2022/12/12 13:36:19;;;;;;;19.83;12.00;;;;;;;7.51;40.88;98255.91;6975601;28;20198;-81
2022/12/12 13:39:40;;;;;;;19.43;13.70;;;;;;;7.79;40.78;98245.06;6979084;28;20227;-80
2022/12/12 13:43:42;;;;;;;15.33;10.37;;;;;;;7.94;39.33;98246.56;6977795;28;20196;-80
2022/12/12 13:47:11;;;;;;;28.13;12.30;;;;;;;7.57;40.65;98247.06;6962019;28;20205;-81
2022/12/12 13:50:33;;;;;;;15.13;9.00;;;;;;;6.99;40.50;98210.03;6974430;28;20219;-81
2022/12/12 13:54:41;;;;;;;11.37;8.67;;;;;;;7.25;40.63;98247.69;6981087;28;20676;-81
2022/12/12 13:58:09;;;;;;;11.80;9.00;;;;;;;7.08;41.38;98241.00;6975193;28;20239;-81
2022/12/12 14:01:45;;;;;;;13.77;8.90;;;;;;;6.60;39.95;98184.84;6980965;28;20220;-80
2022/12/12 14:05:09;;;;;;;10.07;7.30;;;;;;;7.14;40.06;98242.06;6976772;28;20227;-81
2022/12/12 14:08:33;;;;;;;8.70;6.60;;;;;;;7.53;38.88;98239.59;6976267;28;20223;-80
2022/12/12 14:12:07;;;;;;;11.43;7.70;;;;;;;7.39;39.53;98238.72;6984955;28;20206;-80
2022/12/12 14:15:49;;;;;;;10.97;7.90;;;;;;;6.96;40.30;98239.06;6982105;28;20204;-80
2022/12/12 14:19:24;;;;;;;10.23;7.73;;;;;;;7.14;40.24;98250.94;6984079;28;20231;-82
2022/12/12 14:23:08;;;;;;;14.70;9.60;;;;;;;6.95;40.47;98245.47;6979255;28;20215;-82
2022/12/12 14:26:49;;;;;;;11.43;8.57;;;;;;;6.14;41.25;98254.03;6977759;28;20215;-81
2022/12/12 14:30:17;;;;;;;13.93;10.57;;;;;;;5.90;42.45;98265.09;6980666;28;20259;-80
2022/12/12 14:33:58;;;;;;;15.67;11.40;;;;;;;6.62;41.86;98255.09;6981858;28;20266;-80
2022/12/12 14:37:33;;;;;;;16.93;11.10;;;;;;;6.30;43.32;98252.97;6981770;28;20244;-80
2022/12/12 14:40:59;;;;;;;15.20;9.77;;;;;;;6.84;41.56;98251.34;6980791;28;20249;-80
2022/12/12 14:44:22;;;;;;;17.80;11.03;;;;;;;6.51;42.17;98253.78;6980836;28;20227;-79
2022/12/12 14:47:44;;;;;;;19.77;12.03;;;;;;;5.45;44.53;98249.31;6978012;28;20242;-80
2022/12/12 14:51:09;;;;;;;17.73;11.90;;;;;;;5.53;44.44;98257.22;6975723;28;20279;-79
2022/12/12 14:54:31;;;;;;;19.20;11.93;;;;;;;6.03;44.36;98259.91;6956843;28;20254;-80
2022/12/12 14:57:52;;;;;;;15.60;11.27;;;;;;;5.38;45.02;98264.44;6947470;28;20286;-80
2022/12/12 15:01:18;;;;;;;18.07;12.30;;;;;;;5.50;44.21;98235.38;6952372;28;20291;-80
2022/12/12 15:04:40;;;;;;;17.23;11.53;;;;;;;5.31;45.83;98254.66;6951778;28;20242;-79
2022/12/12 15:08:03;;;;;;;15.70;12.23;;;;;;;5.47;45.33;98249.09;6955547;28;20318;-79
2022/12/12 15:11:28;;;;;;;17.20;11.90;;;;;;;5.62;45.47;98239.22;6957598;28;20239;-78
2022/12/12 15:14:54;;;;;;;17.60;12.30;;;;;;;5.04;46.38;98240.13;6949040;28;20206;-78
2022/12/12 15:18:18;;;;;;;18.77;12.97;;;;;;;4.83;46.98;98253.34;6959421;28;20279;-79
2022/12/12 15:21:39;;;;;;;15.57;12.03;;;;;;;5.25;46.65;98236.69;6973689;28;20239;-79
2022/12/12 15:25:12;;;;;;;14.27;10.77;;;;;;;4.98;45.80;98226.66;6974506;28;20259;-79
2022/12/12 15:28:33;;;;;;;18.10;11.13;;;;;;;5.47;45.15;98236.56;6963078;28;20304;-78
2022/12/12 15:31:58;;;;;;;18.27;11.77;;;;;;;5.23;45.19;98247.56;6949226;28;20208;-76
2022/12/12 15:35:21;;;;;;;16.10;11.43;;;;;;;4.80;46.28;98231.53;6948905;28;20881;-78
2022/12/12 15:38:43;;;;;;;16.07;11.67;;;;;;;4.87;46.04;98241.28;6950603;28;20266;-75
2022/12/12 15:42:06;;;;;;;21.10;12.17;;;;;;;5.24;45.92;98251.88;6950766;28;20298;-77
2022/12/12 15:45:33;;;;;;;19.23;14.03;;;;;;;4.49;47.32;98261.00;6951428;28;20342;-75
2022/12/12 15:48:54;;;;;;;17.90;12.90;;;;;;;4.74;47.30;98258.97;6948546;28;20317;-78
2022/12/12 15:52:19;;;;;;;19.97;13.33;;;;;;;4.62;47.93;98263.06;6948649;28;20226;-76
2022/12/12 15:55:50;;;;;;;22.07;13.77;;;;;;;4.73;47.08;98246.63;6946928;28;20575;-78
2022/12/12 15:59:17;;;;;;;23.00;14.53;;;;;;;4.52;47.99;98267.81;6947191;28;20219;-76
2022/12/12 16:02:39;;;;;;;24.37;15.53;;;;;;;4.57;47.21;98257.44;6945270;28;20207;-78
2022/12/12 16:06:04;;;;;;;18.03;13.60;;;;;;;4.59;47.34;98255.41;6960339;28;20210;-77
2022/12/12 16:09:26;;;;;;;18.77;13.20;;;;;;;4.44;47.71;98243.88;6953006;28;20767;-77
2022/12/12 16:12:55;;;;;;;23.10;15.00;;;;;;;4.28;48.34;98247.53;6946746;28;20691;-77
2022/12/12 16:16:41;;;;;;;20.83;14.47;;;;;;;4.54;48.14;98245.28;6948782;28;20249;-78
2022/12/12 16:20:04;;;;;;;20.67;13.23;;;;;;;5.01;47.37;98258.34;6959045;28;20223;-79
2022/12/12 16:23:28;;;;;;;20.60;12.97;;;;;;;4.80;47.71;98260.91;6961380;28;20287;-78
2022/12/12 16:26:50;;;;;;;18.93;13.30;;;;;;;4.32;48.98;98261.34;6946374;28;20295;-78
2022/12/12 16:30:13;;;;;;;21.97;14.20;;;;;;;4.55;48.99;98267.47;6946397;28;20244;-78
2022/12/12 16:33:37;;;;;;;21.63;14.27;;;;;;;4.74;48.67;98267.81;6975314;28;20243;-78
2022/12/12 16:36:58;;;;;;;23.50;14.23;;;;;;;4.62;48.12;98276.44;7001431;28;20197;-78
2022/12/12 16:40:21;;;;;;;24.27;14.57;;;;;;;4.85;46.71;98277.22;7001943;28;20383;-78
2022/12/12 16:43:43;;;;;;;23.40;13.93;;;;;;;4.90;46.77;98277.50;7000838;28;20248;-78
2022/12/12 16:47:14;;;;;;;21.40;14.60;;;;;;;4.28;47.84;98287.56;7004066;28;20206;-78
2022/12/12 16:50:37;;;;;;;25.70;15.37;;;;;;;4.33;48.64;98295.84;6969432;28;20573;-79
2022/12/12 16:53:58;;;;;;;22.27;14.37;;;;;;;3.98;49.41;98268.91;6975097;28;20233;-78
2022/12/12 16:57:20;;;;;;;34.57;18.83;;;;;;;3.86;49.29;98273.84;6975105;28;20623;-78
2022/12/12 17:00:42;;;;;;;41.97;27.57;;;;;;;3.27;51.08;98305.59;6974470;28;20829;-78
2022/12/12 17:04:04;;;;;;;22.43;17.67;;;;;;;3.76;50.43;98291.03;6958887;28;20318;-78
2022/12/12 17:07:27;;;;;;;20.33;13.77;;;;;;;4.08;49.60;98306.88;6957649;28;20206;-82
2022/12/12 17:10:51;;;;;;;26.00;16.40;;;;;;;4.24;48.24;98304.09;6981598;28;20303;-80
2022/12/12 17:14:17;;;;;;;25.17;17.40;;;;;;;3.44;49.96;98297.38;6981410;28;20284;-81
2022/12/12 17:17:39;;;;;;;29.77;17.97;;;;;;;3.68;50.09;98313.28;6984091;28;20198;-80
2022/12/12 17:21:03;;;;;;;22.40;16.23;;;;;;;3.75;49.98;98313.38;7007409;28;20209;-80
2022/12/12 17:24:27;;;;;;;24.77;17.17;;;;;;;3.69;49.65;98309.59;7010738;28;20225;-80
2022/12/12 17:27:48;;;;;;;34.90;23.00;;;;;;;3.35;50.56;98303.75;7010249;28;20210;-80
2022/12/12 17:31:10;;;;;;;23.57;15.33;;;;;;;3.35;50.58;98301.06;7011958;28;20213;-80
2022/12/12 17:34:33;;;;;;;28.37;18.00;;;;;;;3.77;49.77;98296.22;6967583;28;20202;-80
2022/12/12 17:37:55;;;;;;;22.97;15.23;;;;;;;3.76;48.99;98291.03;6965080;28;20226;-80
2022/12/12 17:41:24;;;;;;;26.13;16.67;;;;;;;3.27;49.25;98223.88;6955336;28;20221;-80
2022/12/12 17:44:47;;;;;;;28.87;17.50;;;;;;;3.69;49.32;98287.41;6956484;28;20206;-81
2022/12/12 17:48:19;;;;;;;23.90;15.67;;;;;;;3.62;49.41;98300.63;6966726;28;20608;-80
2022/12/12 17:51:44;;;;;;;20.70;13.23;;;;;;;3.42;49.76;98290.56;6986076;28;20190;-81
2022/12/12 17:55:07;;;;;;;25.20;16.53;;;;;;;3.02;50.52;98243.59;6985213;28;20260;-80
2022/12/12 17:58:35;;;;;;;22.37;14.80;;;;;;;3.48;49.14;98284.53;6985493;28;20868;-81
2022/12/12 18:02:01;;;;;;;26.60;16.47;;;;;;;2.93;50.93;98295.22;6984230;28;20210;-84
2022/12/12 18:06:00;;;;;;;25.23;17.93;;;;;;;2.78;52.21;98288.91;6958446;28;20227;-80
2022/12/12 18:09:22;;;;;;;29.93;19.77;;;;;;;2.91;50.79;98293.72;6973585;28;20230;-81
2022/12/12 18:12:44;;;;;;;21.77;14.80;;;;;;;2.76;51.11;98304.22;6986000;28;20202;-82
2022/12/12 18:16:12;;;;;;;25.27;17.23;;;;;;;2.89;50.61;98304.53;6985687;28;20209;-81
2022/12/12 18:19:34;;;;;;;24.47;16.07;;;;;;;2.32;51.01;98241.75;6965815;28;20265;-80
2022/12/12 18:22:56;;;;;;;26.43;17.80;;;;;;;2.83;51.93;98297.22;6954409;28;20207;-79
2022/12/12 18:26:20;;;;;;;29.50;17.73;;;;;;;2.63;50.81;98290.59;6954040;28;20234;-80